sensor_id;sensor_type;location;lat;lon;timestamp;P1;durP1;ratioP1;P2;durP2;ratioP2
13335;SDS011;6737;51.480;11.962;2023-11-19T00:00:43;6.23;;;5.27;;
13335;SDS011;6737;51.480;11.962;2023-11-19T00:03:08;6.00;;;4.53;;
13335;SDS011;6737;51.480;11.962;2023-11-19T00:05:38;4.77;;;4.27;;
13335;SDS011;6737;51.480;11.962;2023-11-19T00:08:04;5.07;;;4.17;;
13335;SDS011;6737;51.480;11.962;2023-11-19T00:10:31;5.00;;;4.03;;
13335;SDS011;6737;51.480;11.962;2023-11-19T00:12:57;5.50;;;4.00;;
13335;SDS011;6737;51.480;11.962;2023-11-19T00:15:23;4.57;;;3.83;;
13335;SDS011;6737;51.480;11.962;2023-11-19T00:17:49;4.37;;;3.60;;
13335;SDS011;6737;51.480;11.962;2023-11-19T00:20:16;4.13;;;3.30;;
13335;SDS011;6737;51.480;11.962;2023-11-19T00:22:44;6.77;;;3.43;;
13335;SDS011;6737;51.480;11.962;2023-11-19T00:25:13;6.27;;;3.43;;
13335;SDS011;6737;51.480;11.962;2023-11-19T00:27:39;3.67;;;3.10;;
13335;SDS011;6737;51.480;11.962;2023-11-19T00:30:05;4.20;;;3.20;;
13335;SDS011;6737;51.480;11.962;2023-11-19T00:32:32;3.80;;;3.00;;
13335;SDS011;6737;51.480;11.962;2023-11-19T00:34:58;4.40;;;3.20;;
13335;SDS011;6737;51.480;11.962;2023-11-19T00:37:24;4.20;;;3.20;;
13335;SDS011;6737;51.480;11.962;2023-11-19T00:39:50;3.60;;;3.17;;
13335;SDS011;6737;51.480;11.962;2023-11-19T00:42:17;3.37;;;3.07;;
13335;SDS011;6737;51.480;11.962;2023-11-19T00:44:43;4.23;;;3.23;;
13335;SDS011;6737;51.480;11.962;2023-11-19T00:47:08;4.73;;;3.47;;
13335;SDS011;6737;51.480;11.962;2023-11-19T00:49:34;4.03;;;3.30;;
13335;SDS011;6737;51.480;11.962;2023-11-19T00:52:00;3.47;;;3.17;;
13335;SDS011;6737;51.480;11.962;2023-11-19T00:54:27;3.50;;;3.20;;
13335;SDS011;6737;51.480;11.962;2023-11-19T00:56:53;4.27;;;3.30;;
13335;SDS011;6737;51.480;11.962;2023-11-19T00:59:19;4.07;;;3.67;;
13335;SDS011;6737;51.480;11.962;2023-11-19T01:01:45;5.10;;;3.53;;
13335;SDS011;6737;51.480;11.962;2023-11-19T01:04:10;4.33;;;3.93;;
13335;SDS011;6737;51.480;11.962;2023-11-19T01:06:36;4.60;;;3.93;;
13335;SDS011;6737;51.480;11.962;2023-11-19T01:09:02;4.40;;;3.80;;
13335;SDS011;6737;51.480;11.962;2023-11-19T01:11:28;4.47;;;4.07;;
13335;SDS011;6737;51.480;11.962;2023-11-19T01:13:54;3.90;;;3.50;;
13335;SDS011;6737;51.480;11.962;2023-11-19T01:16:19;4.23;;;3.83;;
13335;SDS011;6737;51.480;11.962;2023-11-19T01:18:48;4.20;;;3.80;;
13335;SDS011;6737;51.480;11.962;2023-11-19T01:21:14;4.23;;;3.80;;
13335;SDS011;6737;51.480;11.962;2023-11-19T01:23:41;4.13;;;3.70;;
13335;SDS011;6737;51.480;11.962;2023-11-19T01:26:11;4.33;;;3.90;;
13335;SDS011;6737;51.480;11.962;2023-11-19T01:28:38;4.27;;;3.53;;
13335;SDS011;6737;51.480;11.962;2023-11-19T01:31:05;3.60;;;3.30;;
13335;SDS011;6737;51.480;11.962;2023-11-19T01:33:35;3.67;;;3.37;;
13335;SDS011;6737;51.480;11.962;2023-11-19T01:36:02;5.83;;;3.70;;
13335;SDS011;6737;51.480;11.962;2023-11-19T01:38:29;3.97;;;3.57;;
13335;SDS011;6737;51.480;11.962;2023-11-19T01:40:56;4.20;;;3.43;;
13335;SDS011;6737;51.480;11.962;2023-11-19T01:43:34;3.73;;;3.43;;
13335;SDS011;6737;51.480;11.962;2023-11-19T01:46:06;5.10;;;3.30;;
13335;SDS011;6737;51.480;11.962;2023-11-19T01:48:35;4.37;;;3.40;;
13335;SDS011;6737;51.480;11.962;2023-11-19T01:51:05;4.10;;;3.23;;
13335;SDS011;6737;51.480;11.962;2023-11-19T01:53:33;4.33;;;3.50;;
13335;SDS011;6737;51.480;11.962;2023-11-19T01:56:01;3.30;;;3.00;;
13335;SDS011;6737;51.480;11.962;2023-11-19T01:58:28;4.73;;;3.63;;
13335;SDS011;6737;51.480;11.962;2023-11-19T02:00:55;4.33;;;3.40;;
13335;SDS011;6737;51.480;11.962;2023-11-19T02:03:22;3.87;;;3.40;;
13335;SDS011;6737;51.480;11.962;2023-11-19T02:05:51;3.70;;;3.27;;
13335;SDS011;6737;51.480;11.962;2023-11-19T02:08:18;3.87;;;3.50;;
13335;SDS011;6737;51.480;11.962;2023-11-19T02:10:45;4.10;;;3.70;;
13335;SDS011;6737;51.480;11.962;2023-11-19T02:13:11;4.00;;;3.50;;
13335;SDS011;6737;51.480;11.962;2023-11-19T02:15:39;3.70;;;3.27;;
13335;SDS011;6737;51.480;11.962;2023-11-19T02:18:25;4.83;;;3.50;;
13335;SDS011;6737;51.480;11.962;2023-11-19T02:20:55;4.30;;;3.60;;
13335;SDS011;6737;51.480;11.962;2023-11-19T02:23:27;3.93;;;2.93;;
13335;SDS011;6737;51.480;11.962;2023-11-19T02:26:11;3.57;;;2.90;;
13335;SDS011;6737;51.480;11.962;2023-11-19T02:28:42;3.40;;;2.90;;
13335;SDS011;6737;51.480;11.962;2023-11-19T02:31:08;3.30;;;3.00;;
13335;SDS011;6737;51.480;11.962;2023-11-19T02:33:37;3.40;;;3.10;;
13335;SDS011;6737;51.480;11.962;2023-11-19T02:36:04;3.37;;;3.07;;
13335;SDS011;6737;51.480;11.962;2023-11-19T02:38:32;3.43;;;2.97;;
13335;SDS011;6737;51.480;11.962;2023-11-19T02:40:59;4.27;;;2.70;;
13335;SDS011;6737;51.480;11.962;2023-11-19T02:43:27;2.80;;;2.50;;
13335;SDS011;6737;51.480;11.962;2023-11-19T02:45:53;2.87;;;2.60;;
13335;SDS011;6737;51.480;11.962;2023-11-19T02:48:21;2.87;;;2.47;;
13335;SDS011;6737;51.480;11.962;2023-11-19T02:50:46;3.27;;;2.30;;
13335;SDS011;6737;51.480;11.962;2023-11-19T02:53:13;3.53;;;2.30;;
13335;SDS011;6737;51.480;11.962;2023-11-19T02:55:38;2.70;;;2.20;;
13335;SDS011;6737;51.480;11.962;2023-11-19T02:58:06;2.43;;;2.23;;
13335;SDS011;6737;51.480;11.962;2023-11-19T03:00:39;2.83;;;2.20;;
13335;SDS011;6737;51.480;11.962;2023-11-19T03:03:12;2.90;;;2.40;;
13335;SDS011;6737;51.480;11.962;2023-11-19T03:05:51;3.13;;;2.67;;
13335;SDS011;6737;51.480;11.962;2023-11-19T03:08:16;2.90;;;2.40;;
13335;SDS011;6737;51.480;11.962;2023-11-19T03:10:42;3.25;;;2.40;;
13335;SDS011;6737;51.480;11.962;2023-11-19T03:13:12;2.50;;;2.20;;
13335;SDS011;6737;51.480;11.962;2023-11-19T03:15:43;3.72;;;2.30;;
13335;SDS011;6737;51.480;11.962;2023-11-19T03:18:09;2.30;;;2.07;;
13335;SDS011;6737;51.480;11.962;2023-11-19T03:20:35;3.23;;;1.83;;
13335;SDS011;6737;51.480;11.962;2023-11-19T03:23:00;2.83;;;1.97;;
13335;SDS011;6737;51.480;11.962;2023-11-19T03:25:27;3.77;;;2.00;;
13335;SDS011;6737;51.480;11.962;2023-11-19T03:27:59;2.07;;;1.87;;
13335;SDS011;6737;51.480;11.962;2023-11-19T03:30:29;2.77;;;2.10;;
13335;SDS011;6737;51.480;11.962;2023-11-19T03:32:56;2.53;;;1.90;;
13335;SDS011;6737;51.480;11.962;2023-11-19T03:35:22;3.00;;;1.67;;
13335;SDS011;6737;51.480;11.962;2023-11-19T03:37:49;2.30;;;1.60;;
13335;SDS011;6737;51.480;11.962;2023-11-19T03:40:16;3.30;;;1.60;;
13335;SDS011;6737;51.480;11.962;2023-11-19T03:42:44;2.80;;;1.50;;
13335;SDS011;6737;51.480;11.962;2023-11-19T03:45:13;1.40;;;1.30;;
13335;SDS011;6737;51.480;11.962;2023-11-19T03:47:41;1.20;;;1.10;;
13335;SDS011;6737;51.480;11.962;2023-11-19T03:50:06;2.10;;;1.47;;
13335;SDS011;6737;51.480;11.962;2023-11-19T03:52:35;2.30;;;1.33;;
13335;SDS011;6737;51.480;11.962;2023-11-19T03:55:01;3.33;;;1.20;;
13335;SDS011;6737;51.480;11.962;2023-11-19T03:57:30;1.50;;;1.00;;
13335;SDS011;6737;51.480;11.962;2023-11-19T03:59:55;1.73;;;1.10;;
13335;SDS011;6737;51.480;11.962;2023-11-19T04:02:23;1.57;;;1.00;;
13335;SDS011;6737;51.480;11.962;2023-11-19T04:04:53;1.20;;;1.10;;
13335;SDS011;6737;51.480;11.962;2023-11-19T04:07:20;1.47;;;1.10;;
13335;SDS011;6737;51.480;11.962;2023-11-19T04:09:46;1.27;;;1.00;;
13335;SDS011;6737;51.480;11.962;2023-11-19T04:12:12;2.80;;;1.00;;
13335;SDS011;6737;51.480;11.962;2023-11-19T04:14:37;2.00;;;1.03;;
13335;SDS011;6737;51.480;11.962;2023-11-19T04:17:03;2.17;;;1.00;;
13335;SDS011;6737;51.480;11.962;2023-11-19T04:19:29;2.97;;;0.93;;
13335;SDS011;6737;51.480;11.962;2023-11-19T04:21:55;2.63;;;1.20;;
13335;SDS011;6737;51.480;11.962;2023-11-19T04:24:20;1.77;;;1.00;;
13335;SDS011;6737;51.480;11.962;2023-11-19T04:26:46;2.00;;;1.13;;
13335;SDS011;6737;51.480;11.962;2023-11-19T04:29:12;1.47;;;1.00;;
13335;SDS011;6737;51.480;11.962;2023-11-19T04:31:40;1.57;;;1.00;;
13335;SDS011;6737;51.480;11.962;2023-11-19T04:34:06;1.60;;;1.10;;
13335;SDS011;6737;51.480;11.962;2023-11-19T04:36:32;1.20;;;1.00;;
13335;SDS011;6737;51.480;11.962;2023-11-19T04:39:01;1.50;;;1.00;;
13335;SDS011;6737;51.480;11.962;2023-11-19T04:41:28;1.77;;;1.00;;
13335;SDS011;6737;51.480;11.962;2023-11-19T04:43:53;2.60;;;1.10;;
13335;SDS011;6737;51.480;11.962;2023-11-19T04:46:20;1.10;;;1.00;;
13335;SDS011;6737;51.480;11.962;2023-11-19T04:48:46;1.10;;;0.80;;
13335;SDS011;6737;51.480;11.962;2023-11-19T04:51:11;1.57;;;1.00;;
13335;SDS011;6737;51.480;11.962;2023-11-19T04:53:37;1.00;;;0.90;;
13335;SDS011;6737;51.480;11.962;2023-11-19T04:56:09;2.07;;;0.90;;
13335;SDS011;6737;51.480;11.962;2023-11-19T04:58:36;3.67;;;1.10;;
13335;SDS011;6737;51.480;11.962;2023-11-19T05:01:04;1.53;;;0.90;;
13335;SDS011;6737;51.480;11.962;2023-11-19T05:03:31;1.67;;;0.83;;
13335;SDS011;6737;51.480;11.962;2023-11-19T05:05:57;0.97;;;0.87;;
13335;SDS011;6737;51.480;11.962;2023-11-19T05:08:23;0.80;;;0.80;;
13335;SDS011;6737;51.480;11.962;2023-11-19T05:10:49;1.63;;;0.73;;
13335;SDS011;6737;51.480;11.962;2023-11-19T05:13:15;1.30;;;0.90;;
13335;SDS011;6737;51.480;11.962;2023-11-19T05:15:42;2.33;;;0.90;;
13335;SDS011;6737;51.480;11.962;2023-11-19T05:18:07;0.93;;;0.77;;
13335;SDS011;6737;51.480;11.962;2023-11-19T05:20:34;1.00;;;0.80;;
13335;SDS011;6737;51.480;11.962;2023-11-19T05:22:59;1.00;;;0.90;;
13335;SDS011;6737;51.480;11.962;2023-11-19T05:25:29;0.70;;;0.70;;
13335;SDS011;6737;51.480;11.962;2023-11-19T05:27:54;0.70;;;0.70;;
13335;SDS011;6737;51.480;11.962;2023-11-19T05:30:20;1.07;;;0.80;;
13335;SDS011;6737;51.480;11.962;2023-11-19T05:32:46;2.40;;;0.80;;
13335;SDS011;6737;51.480;11.962;2023-11-19T05:35:12;0.80;;;0.80;;
13335;SDS011;6737;51.480;11.962;2023-11-19T05:37:38;0.80;;;0.80;;
13335;SDS011;6737;51.480;11.962;2023-11-19T05:40:05;1.07;;;0.80;;
13335;SDS011;6737;51.480;11.962;2023-11-19T05:42:39;0.97;;;0.70;;
13335;SDS011;6737;51.480;11.962;2023-11-19T05:45:06;0.90;;;0.77;;
13335;SDS011;6737;51.480;11.962;2023-11-19T05:47:33;1.03;;;0.70;;
13335;SDS011;6737;51.480;11.962;2023-11-19T05:49:58;1.23;;;0.70;;
13335;SDS011;6737;51.480;11.962;2023-11-19T05:52:24;0.70;;;0.70;;
13335;SDS011;6737;51.480;11.962;2023-11-19T05:54:50;0.67;;;0.60;;
13335;SDS011;6737;51.480;11.962;2023-11-19T05:57:17;0.70;;;0.70;;
13335;SDS011;6737;51.480;11.962;2023-11-19T05:59:49;0.80;;;0.80;;
13335;SDS011;6737;51.480;11.962;2023-11-19T06:02:15;1.13;;;0.73;;
13335;SDS011;6737;51.480;11.962;2023-11-19T06:04:41;1.20;;;0.80;;
13335;SDS011;6737;51.480;11.962;2023-11-19T06:07:09;0.77;;;0.77;;
13335;SDS011;6737;51.480;11.962;2023-11-19T06:09:35;1.57;;;0.70;;
13335;SDS011;6737;51.480;11.962;2023-11-19T06:12:01;1.23;;;0.80;;
13335;SDS011;6737;51.480;11.962;2023-11-19T06:14:31;1.10;;;0.90;;
13335;SDS011;6737;51.480;11.962;2023-11-19T06:16:57;0.73;;;0.70;;
13335;SDS011;6737;51.480;11.962;2023-11-19T06:19:22;0.80;;;0.80;;
13335;SDS011;6737;51.480;11.962;2023-11-19T06:21:50;0.80;;;0.70;;
13335;SDS011;6737;51.480;11.962;2023-11-19T06:24:16;1.30;;;0.90;;
13335;SDS011;6737;51.480;11.962;2023-11-19T06:26:42;2.83;;;0.83;;
13335;SDS011;6737;51.480;11.962;2023-11-19T06:29:08;0.77;;;0.77;;
13335;SDS011;6737;51.480;11.962;2023-11-19T06:31:33;1.70;;;0.73;;
13335;SDS011;6737;51.480;11.962;2023-11-19T06:33:59;1.27;;;0.90;;
13335;SDS011;6737;51.480;11.962;2023-11-19T06:36:25;1.17;;;0.70;;
13335;SDS011;6737;51.480;11.962;2023-11-19T06:38:52;1.00;;;0.80;;
13335;SDS011;6737;51.480;11.962;2023-11-19T06:41:17;0.80;;;0.80;;
13335;SDS011;6737;51.480;11.962;2023-11-19T06:43:43;3.10;;;0.90;;
13335;SDS011;6737;51.480;11.962;2023-11-19T06:46:15;0.88;;;0.88;;
13335;SDS011;6737;51.480;11.962;2023-11-19T06:48:42;1.07;;;0.80;;
13335;SDS011;6737;51.480;11.962;2023-11-19T06:51:09;1.00;;;0.90;;
13335;SDS011;6737;51.480;11.962;2023-11-19T06:53:35;1.77;;;1.03;;
13335;SDS011;6737;51.480;11.962;2023-11-19T06:56:01;1.07;;;0.90;;
13335;SDS011;6737;51.480;11.962;2023-11-19T06:58:31;1.00;;;0.90;;
13335;SDS011;6737;51.480;11.962;2023-11-19T07:01:01;1.30;;;0.90;;
13335;SDS011;6737;51.480;11.962;2023-11-19T07:03:26;1.37;;;0.87;;
13335;SDS011;6737;51.480;11.962;2023-11-19T07:05:52;0.77;;;0.77;;
13335;SDS011;6737;51.480;11.962;2023-11-19T07:08:19;0.97;;;0.87;;
13335;SDS011;6737;51.480;11.962;2023-11-19T07:10:44;0.87;;;0.87;;
13335;SDS011;6737;51.480;11.962;2023-11-19T07:13:14;1.37;;;0.80;;
13335;SDS011;6737;51.480;11.962;2023-11-19T07:15:40;1.10;;;0.90;;
13335;SDS011;6737;51.480;11.962;2023-11-19T07:18:06;3.20;;;1.00;;
13335;SDS011;6737;51.480;11.962;2023-11-19T07:20:31;0.97;;;0.87;;
13335;SDS011;6737;51.480;11.962;2023-11-19T07:22:58;2.20;;;1.00;;
13335;SDS011;6737;51.480;11.962;2023-11-19T07:25:24;1.30;;;1.00;;
13335;SDS011;6737;51.480;11.962;2023-11-19T07:27:51;1.17;;;0.90;;
13335;SDS011;6737;51.480;11.962;2023-11-19T07:30:17;1.13;;;1.03;;
13335;SDS011;6737;51.480;11.962;2023-11-19T07:32:43;1.03;;;0.90;;
13335;SDS011;6737;51.480;11.962;2023-11-19T07:35:09;0.90;;;0.90;;
13335;SDS011;6737;51.480;11.962;2023-11-19T07:37:34;1.23;;;0.90;;
13335;SDS011;6737;51.480;11.962;2023-11-19T07:40:00;2.03;;;1.00;;
13335;SDS011;6737;51.480;11.962;2023-11-19T07:42:26;1.23;;;0.90;;
13335;SDS011;6737;51.480;11.962;2023-11-19T07:44:52;1.33;;;1.10;;
13335;SDS011;6737;51.480;11.962;2023-11-19T07:47:20;1.00;;;0.90;;
13335;SDS011;6737;51.480;11.962;2023-11-19T07:49:49;1.20;;;1.10;;
13335;SDS011;6737;51.480;11.962;2023-11-19T07:52:16;0.93;;;0.80;;
13335;SDS011;6737;51.480;11.962;2023-11-19T07:54:42;1.80;;;1.00;;
13335;SDS011;6737;51.480;11.962;2023-11-19T07:57:08;2.27;;;0.90;;
13335;SDS011;6737;51.480;11.962;2023-11-19T07:59:34;1.30;;;0.97;;
13335;SDS011;6737;51.480;11.962;2023-11-19T08:01:59;2.70;;;1.10;;
13335;SDS011;6737;51.480;11.962;2023-11-19T08:04:25;2.00;;;1.10;;
13335;SDS011;6737;51.480;11.962;2023-11-19T08:06:51;1.83;;;1.07;;
13335;SDS011;6737;51.480;11.962;2023-11-19T08:09:16;2.03;;;1.10;;
13335;SDS011;6737;51.480;11.962;2023-11-19T08:11:42;1.60;;;1.30;;
13335;SDS011;6737;51.480;11.962;2023-11-19T08:14:09;2.40;;;1.10;;
13335;SDS011;6737;51.480;11.962;2023-11-19T08:16:34;2.43;;;1.13;;
13335;SDS011;6737;51.480;11.962;2023-11-19T08:19:02;1.20;;;1.00;;
13335;SDS011;6737;51.480;11.962;2023-11-19T08:21:28;1.60;;;1.10;;
13335;SDS011;6737;51.480;11.962;2023-11-19T08:23:54;1.73;;;1.10;;
13335;SDS011;6737;51.480;11.962;2023-11-19T08:26:19;1.77;;;1.20;;
13335;SDS011;6737;51.480;11.962;2023-11-19T08:28:45;1.83;;;1.17;;
13335;SDS011;6737;51.480;11.962;2023-11-19T08:31:11;1.60;;;1.20;;
13335;SDS011;6737;51.480;11.962;2023-11-19T08:33:37;2.40;;;1.10;;
13335;SDS011;6737;51.480;11.962;2023-11-19T08:36:03;1.47;;;1.27;;
13335;SDS011;6737;51.480;11.962;2023-11-19T08:38:29;2.03;;;1.30;;
13335;SDS011;6737;51.480;11.962;2023-11-19T08:40:56;2.30;;;1.40;;
13335;SDS011;6737;51.480;11.962;2023-11-19T08:43:26;2.33;;;1.30;;
13335;SDS011;6737;51.480;11.962;2023-11-19T08:45:52;1.67;;;1.30;;
13335;SDS011;6737;51.480;11.962;2023-11-19T08:48:17;1.30;;;1.20;;
13335;SDS011;6737;51.480;11.962;2023-11-19T08:50:43;1.47;;;1.07;;
13335;SDS011;6737;51.480;11.962;2023-11-19T08:53:09;3.07;;;1.20;;
13335;SDS011;6737;51.480;11.962;2023-11-19T08:55:35;2.00;;;1.10;;
13335;SDS011;6737;51.480;11.962;2023-11-19T08:58:00;1.95;;;1.02;;
13335;SDS011;6737;51.480;11.962;2023-11-19T09:00:27;2.83;;;1.00;;
13335;SDS011;6737;51.480;11.962;2023-11-19T09:02:53;2.30;;;1.20;;
13335;SDS011;6737;51.480;11.962;2023-11-19T09:05:19;2.47;;;1.20;;
13335;SDS011;6737;51.480;11.962;2023-11-19T09:07:44;1.50;;;1.20;;
13335;SDS011;6737;51.480;11.962;2023-11-19T09:10:10;2.60;;;1.10;;
13335;SDS011;6737;51.480;11.962;2023-11-19T09:12:37;2.23;;;1.07;;
13335;SDS011;6737;51.480;11.962;2023-11-19T09:15:02;2.60;;;1.20;;
13335;SDS011;6737;51.480;11.962;2023-11-19T09:17:28;1.97;;;1.10;;
13335;SDS011;6737;51.480;11.962;2023-11-19T09:19:54;2.00;;;1.13;;
13335;SDS011;6737;51.480;11.962;2023-11-19T09:22:20;3.00;;;1.20;;
13335;SDS011;6737;51.480;11.962;2023-11-19T09:24:46;2.00;;;1.20;;
13335;SDS011;6737;51.480;11.962;2023-11-19T09:27:13;1.87;;;1.23;;
13335;SDS011;6737;51.480;11.962;2023-11-19T09:29:38;4.10;;;1.40;;
13335;SDS011;6737;51.480;11.962;2023-11-19T09:32:04;5.30;;;1.60;;
13335;SDS011;6737;51.480;11.962;2023-11-19T09:34:31;3.17;;;1.57;;
13335;SDS011;6737;51.480;11.962;2023-11-19T09:36:57;5.80;;;1.93;;
13335;SDS011;6737;51.480;11.962;2023-11-19T09:39:23;3.33;;;2.20;;
13335;SDS011;6737;51.480;11.962;2023-11-19T09:41:51;5.60;;;2.27;;
13335;SDS011;6737;51.480;11.962;2023-11-19T09:44:17;4.88;;;2.83;;
13335;SDS011;6737;51.480;11.962;2023-11-19T09:46:44;11.15;;;7.55;;
13335;SDS011;6737;51.480;11.962;2023-11-19T09:49:11;12.48;;;8.30;;
13335;SDS011;6737;51.480;11.962;2023-11-19T09:51:39;10.02;;;7.50;;
13335;SDS011;6737;51.480;11.962;2023-11-19T09:54:05;10.27;;;6.70;;
13335;SDS011;6737;51.480;11.962;2023-11-19T09:56:32;8.45;;;3.50;;
13335;SDS011;6737;51.480;11.962;2023-11-19T09:59:01;5.27;;;2.70;;
13335;SDS011;6737;51.480;11.962;2023-11-19T10:01:27;8.63;;;4.83;;
13335;SDS011;6737;51.480;11.962;2023-11-19T10:03:54;10.53;;;6.40;;
13335;SDS011;6737;51.480;11.962;2023-11-19T10:06:22;13.20;;;8.10;;
13335;SDS011;6737;51.480;11.962;2023-11-19T10:08:50;13.60;;;7.93;;
13335;SDS011;6737;51.480;11.962;2023-11-19T10:11:16;6.80;;;3.97;;
13335;SDS011;6737;51.480;11.962;2023-11-19T10:13:42;6.20;;;4.20;;
13335;SDS011;6737;51.480;11.962;2023-11-19T10:16:12;7.10;;;4.60;;
13335;SDS011;6737;51.480;11.962;2023-11-19T10:18:44;6.43;;;3.27;;
13335;SDS011;6737;51.480;11.962;2023-11-19T10:21:18;11.13;;;4.27;;
13335;SDS011;6737;51.480;11.962;2023-11-19T10:26:17;5.60;;;3.03;;
13335;SDS011;6737;51.480;11.962;2023-11-19T10:28:45;8.60;;;2.80;;
13335;SDS011;6737;51.480;11.962;2023-11-19T10:31:15;10.67;;;2.97;;
13335;SDS011;6737;51.480;11.962;2023-11-19T10:33:43;7.53;;;3.10;;
13335;SDS011;6737;51.480;11.962;2023-11-19T10:36:11;11.47;;;3.23;;
13335;SDS011;6737;51.480;11.962;2023-11-19T10:38:37;12.00;;;3.40;;
13335;SDS011;6737;51.480;11.962;2023-11-19T10:41:04;7.17;;;3.37;;
13335;SDS011;6737;51.480;11.962;2023-11-19T10:43:30;8.53;;;3.30;;
13335;SDS011;6737;51.480;11.962;2023-11-19T10:46:09;8.80;;;3.67;;
13335;SDS011;6737;51.480;11.962;2023-11-19T10:48:37;9.07;;;3.47;;
13335;SDS011;6737;51.480;11.962;2023-11-19T10:51:05;6.80;;;3.23;;
13335;SDS011;6737;51.480;11.962;2023-11-19T10:53:37;7.40;;;3.13;;
13335;SDS011;6737;51.480;11.962;2023-11-19T10:56:06;7.13;;;3.10;;
13335;SDS011;6737;51.480;11.962;2023-11-19T10:58:37;9.13;;;3.10;;
13335;SDS011;6737;51.480;11.962;2023-11-19T11:01:09;9.37;;;3.30;;
13335;SDS011;6737;51.480;11.962;2023-11-19T11:03:49;12.20;;;3.57;;
13335;SDS011;6737;51.480;11.962;2023-11-19T11:06:19;7.87;;;3.13;;
13335;SDS011;6737;51.480;11.962;2023-11-19T11:08:47;8.53;;;3.80;;
13335;SDS011;6737;51.480;11.962;2023-11-19T11:11:15;7.70;;;3.40;;
13335;SDS011;6737;51.480;11.962;2023-11-19T11:13:48;9.23;;;3.47;;
13335;SDS011;6737;51.480;11.962;2023-11-19T11:16:17;7.57;;;3.67;;
13335;SDS011;6737;51.480;11.962;2023-11-19T11:18:45;9.57;;;3.80;;
13335;SDS011;6737;51.480;11.962;2023-11-19T11:21:15;13.07;;;4.30;;
13335;SDS011;6737;51.480;11.962;2023-11-19T11:24:03;11.10;;;4.17;;
13335;SDS011;6737;51.480;11.962;2023-11-19T11:32:37;16.90;;;4.33;;
13335;SDS011;6737;51.480;11.962;2023-11-19T11:38:06;16.43;;;4.40;;
13335;SDS011;6737;51.480;11.962;2023-11-19T11:40:33;15.53;;;4.47;;
13335;SDS011;6737;51.480;11.962;2023-11-19T11:43:00;16.98;;;4.95;;
13335;SDS011;6737;51.480;11.962;2023-11-19T11:45:35;17.33;;;4.67;;
13335;SDS011;6737;51.480;11.962;2023-11-19T11:50:47;18.42;;;4.68;;
13335;SDS011;6737;51.480;11.962;2023-11-19T11:53:16;14.50;;;4.27;;
13335;SDS011;6737;51.480;11.962;2023-11-19T11:58:17;15.65;;;5.07;;
13335;SDS011;6737;51.480;11.962;2023-11-19T12:00:51;23.52;;;5.10;;
13335;SDS011;6737;51.480;11.962;2023-11-19T12:03:19;15.75;;;3.92;;
13335;SDS011;6737;51.480;11.962;2023-11-19T12:05:47;16.40;;;3.60;;
13335;SDS011;6737;51.480;11.962;2023-11-19T12:08:14;17.83;;;3.67;;
13335;SDS011;6737;51.480;11.962;2023-11-19T12:10:46;13.77;;;3.17;;
13335;SDS011;6737;51.480;11.962;2023-11-19T12:13:17;14.02;;;2.70;;
13335;SDS011;6737;51.480;11.962;2023-11-19T12:18:23;11.13;;;2.80;;
13335;SDS011;6737;51.480;11.962;2023-11-19T12:20:51;14.87;;;3.20;;
13335;SDS011;6737;51.480;11.962;2023-11-19T12:23:17;15.63;;;2.90;;
13335;SDS011;6737;51.480;11.962;2023-11-19T12:25:42;13.77;;;3.00;;
13335;SDS011;6737;51.480;11.962;2023-11-19T12:28:13;13.70;;;3.05;;
13335;SDS011;6737;51.480;11.962;2023-11-19T12:30:43;13.50;;;2.92;;
13335;SDS011;6737;51.480;11.962;2023-11-19T12:33:10;11.90;;;2.90;;
13335;SDS011;6737;51.480;11.962;2023-11-19T12:35:40;15.02;;;3.13;;
13335;SDS011;6737;51.480;11.962;2023-11-19T12:38:07;13.30;;;2.60;;
13335;SDS011;6737;51.480;11.962;2023-11-19T12:40:33;13.82;;;2.97;;
13335;SDS011;6737;51.480;11.962;2023-11-19T12:42:59;13.07;;;3.10;;
13335;SDS011;6737;51.480;11.962;2023-11-19T12:45:34;12.63;;;2.90;;
13335;SDS011;6737;51.480;11.962;2023-11-19T12:48:06;13.98;;;3.10;;
13335;SDS011;6737;51.480;11.962;2023-11-19T12:50:50;14.98;;;2.90;;
13335;SDS011;6737;51.480;11.962;2023-11-19T12:53:18;10.38;;;2.85;;
13335;SDS011;6737;51.480;11.962;2023-11-19T12:55:44;13.55;;;3.10;;
13335;SDS011;6737;51.480;11.962;2023-11-19T12:58:10;11.97;;;2.80;;
13335;SDS011;6737;51.480;11.962;2023-11-19T13:00:36;12.80;;;2.75;;
13335;SDS011;6737;51.480;11.962;2023-11-19T13:03:01;15.68;;;3.30;;
13335;SDS011;6737;51.480;11.962;2023-11-19T13:05:29;13.90;;;3.25;;
13335;SDS011;6737;51.480;11.962;2023-11-19T13:10:28;12.65;;;3.20;;
13335;SDS011;6737;51.480;11.962;2023-11-19T13:13:01;13.70;;;3.08;;
13335;SDS011;6737;51.480;11.962;2023-11-19T13:15:33;12.60;;;3.28;;
13335;SDS011;6737;51.480;11.962;2023-11-19T13:18:00;15.25;;;3.30;;
13335;SDS011;6737;51.480;11.962;2023-11-19T13:20:27;14.23;;;2.90;;
13335;SDS011;6737;51.480;11.962;2023-11-19T13:23:03;15.48;;;3.13;;
13335;SDS011;6737;51.480;11.962;2023-11-19T13:25:30;13.23;;;3.15;;
13335;SDS011;6737;51.480;11.962;2023-11-19T13:27:59;13.10;;;2.90;;
13335;SDS011;6737;51.480;11.962;2023-11-19T13:30:25;17.17;;;3.17;;
13335;SDS011;6737;51.480;11.962;2023-11-19T13:32:52;14.65;;;3.22;;
13335;SDS011;6737;51.480;11.962;2023-11-19T13:35:20;13.82;;;3.08;;
13335;SDS011;6737;51.480;11.962;2023-11-19T13:37:47;13.77;;;2.72;;
13335;SDS011;6737;51.480;11.962;2023-11-19T13:40:13;14.63;;;3.15;;
13335;SDS011;6737;51.480;11.962;2023-11-19T13:42:41;15.80;;;3.22;;
13335;SDS011;6737;51.480;11.962;2023-11-19T13:47:36;13.50;;;2.83;;
13335;SDS011;6737;51.480;11.962;2023-11-19T13:50:02;13.50;;;3.00;;
13335;SDS011;6737;51.480;11.962;2023-11-19T13:52:31;15.25;;;2.95;;
13335;SDS011;6737;51.480;11.962;2023-11-19T13:54:57;14.52;;;3.17;;
13335;SDS011;6737;51.480;11.962;2023-11-19T13:57:22;15.40;;;3.17;;
13335;SDS011;6737;51.480;11.962;2023-11-19T13:59:48;14.40;;;2.90;;
13335;SDS011;6737;51.480;11.962;2023-11-19T14:02:14;13.82;;;2.97;;
13335;SDS011;6737;51.480;11.962;2023-11-19T14:04:40;15.93;;;3.27;;
13335;SDS011;6737;51.480;11.962;2023-11-19T14:07:06;14.18;;;2.80;;
13335;SDS011;6737;51.480;11.962;2023-11-19T14:09:32;12.20;;;2.95;;
13335;SDS011;6737;51.480;11.962;2023-11-19T14:11:58;14.27;;;2.87;;
13335;SDS011;6737;51.480;11.962;2023-11-19T14:14:24;14.35;;;3.20;;
13335;SDS011;6737;51.480;11.962;2023-11-19T14:16:50;13.52;;;3.08;;
13335;SDS011;6737;51.480;11.962;2023-11-19T14:19:15;13.97;;;3.10;;
13335;SDS011;6737;51.480;11.962;2023-11-19T14:21:41;15.75;;;3.15;;
13335;SDS011;6737;51.480;11.962;2023-11-19T14:24:07;18.60;;;3.40;;
13335;SDS011;6737;51.480;11.962;2023-11-19T14:26:33;13.40;;;3.00;;
13335;SDS011;6737;51.480;11.962;2023-11-19T14:28:59;13.85;;;2.88;;
13335;SDS011;6737;51.480;11.962;2023-11-19T14:31:27;12.07;;;2.90;;
13335;SDS011;6737;51.480;11.962;2023-11-19T14:33:54;14.48;;;3.05;;
13335;SDS011;6737;51.480;11.962;2023-11-19T14:36:19;11.73;;;2.78;;
13335;SDS011;6737;51.480;11.962;2023-11-19T14:38:46;17.10;;;3.20;;
13335;SDS011;6737;51.480;11.962;2023-11-19T14:41:12;17.13;;;3.40;;
13335;SDS011;6737;51.480;11.962;2023-11-19T14:43:39;16.23;;;3.17;;
13335;SDS011;6737;51.480;11.962;2023-11-19T14:46:05;15.70;;;2.90;;
13335;SDS011;6737;51.480;11.962;2023-11-19T14:48:31;13.27;;;2.88;;
13335;SDS011;6737;51.480;11.962;2023-11-19T14:50:57;12.60;;;2.80;;
13335;SDS011;6737;51.480;11.962;2023-11-19T14:53:23;14.20;;;3.07;;
13335;SDS011;6737;51.480;11.962;2023-11-19T14:55:49;12.15;;;2.72;;
13335;SDS011;6737;51.480;11.962;2023-11-19T14:58:15;12.63;;;2.80;;
13335;SDS011;6737;51.480;11.962;2023-11-19T15:00:40;13.17;;;3.03;;
13335;SDS011;6737;51.480;11.962;2023-11-19T15:03:06;12.65;;;2.60;;
13335;SDS011;6737;51.480;11.962;2023-11-19T15:05:33;12.73;;;2.72;;
13335;SDS011;6737;51.480;11.962;2023-11-19T15:07:59;11.40;;;2.80;;